DEVEE EDHL-EDWW
Flight info
| Callsign | DEVEE |
|---|---|
| Flight time | N/A |
| Altitude | |
| Route | |
| Aircraft | C152 |
Departure
| Time | 2026-04-27 20:14 |
|---|---|
| Airport | Lübeck Blankensee Airport (EDHL) |
Arrival
| Time | N/A |
|---|---|
| Airport | EDWW |
| Time | Latitude | Longitude | Altitude | Speed | Heading |
|---|---|---|---|---|---|
| 2026-04-27 20:10 | 53.80568 | 10.70491 | 55 ft | 0 kts | 135° |
| 2026-04-27 20:11 | 53.80578 | 10.70497 | 52 ft | 6 kts | 287° |
| 2026-04-27 20:11 | 53.80601 | 10.70422 | 55 ft | 11 kts | 281° |
| 2026-04-27 20:12 | 53.80551 | 10.70331 | 55 ft | 11 kts | 178° |
| 2026-04-27 20:12 | 53.80504 | 10.70376 | 55 ft | 12 kts | 140° |
| 2026-04-27 20:12 | 53.80402 | 10.70494 | 55 ft | 14 kts | 142° |
| 2026-04-27 20:12 | 53.80318 | 10.70600 | 54 ft | 16 kts | 135° |
| 2026-04-27 20:13 | 53.80327 | 10.70841 | 55 ft | 42 kts | 73° |
| 2026-04-27 20:13 | 53.80452 | 10.71514 | 94 ft | 72 kts | 69° |
| 2026-04-27 20:13 | 53.80623 | 10.72359 | 226 ft | 75 kts | 72° |
| 2026-04-27 20:13 | 53.80772 | 10.73198 | 421 ft | 72 kts | 63° |
| 2026-04-27 20:14 | 53.81208 | 10.73501 | 588 ft | 79 kts | 346° |
| 2026-04-27 20:14 | 53.81510 | 10.72719 | 734 ft | 86 kts | 277° |
| 2026-04-27 20:14 | 53.81460 | 10.71697 | 849 ft | 92 kts | 264° |
| 2026-04-27 20:14 | 53.81339 | 10.70632 | 1024 ft | 94 kts | 259° |
| 2026-04-27 20:15 | 53.81167 | 10.69532 | 1132 ft | 98 kts | 257° |
| 2026-04-27 20:15 | 53.80984 | 10.68386 | 1225 ft | 101 kts | 255° |
| 2026-04-27 20:15 | 53.80543 | 10.67624 | 1037 ft | 91 kts | 168° |
| 2026-04-27 20:15 | 53.80203 | 10.68135 | 766 ft | 59 kts | 112° |
| 2026-04-27 20:16 | 53.80054 | 10.68768 | 545 ft | 57 kts | 96° |
| 2026-04-27 20:16 | 53.80066 | 10.69432 | 411 ft | 57 kts | 73° |
| 2026-04-27 20:16 | 53.80185 | 10.70073 | 248 ft | 57 kts | 69° |
| 2026-04-27 20:16 | 53.80292 | 10.70667 | 100 ft | 46 kts | 70° |
| 2026-04-27 20:17 | 53.80373 | 10.71085 | 56 ft | 30 kts | 63° |
| 2026-04-27 20:17 | 53.80461 | 10.71441 | 96 ft | 36 kts | 66° |
| 2026-04-27 20:17 | 53.80563 | 10.71932 | 177 ft | 53 kts | 64° |
| 2026-04-27 20:17 | 53.80638 | 10.72365 | 267 ft | 57 kts | 73° |
| 2026-04-27 20:18 | 53.80811 | 10.73238 | 550 ft | 57 kts | 34° |
| 2026-04-27 20:18 | 53.81244 | 10.73135 | 709 ft | 71 kts | 346° |
| 2026-04-27 20:18 | 53.81735 | 10.72856 | 840 ft | 80 kts | 336° |
| 2026-04-27 20:18 | 53.81808 | 10.71900 | 991 ft | 91 kts | 261° |
| 2026-04-27 20:19 | 53.81650 | 10.70802 | 1064 ft | 101 kts | 257° |
| 2026-04-27 20:19 | 53.81434 | 10.69638 | 1137 ft | 103 kts | 252° |
| 2026-04-27 20:19 | 53.81199 | 10.68508 | 1231 ft | 98 kts | 251° |
| 2026-04-27 20:19 | 53.81016 | 10.67483 | 1297 ft | 89 kts | 256° |
| 2026-04-27 20:20 | 53.80852 | 10.66498 | 1336 ft | 81 kts | 256° |
| 2026-04-27 20:20 | 53.80658 | 10.65588 | 1322 ft | 81 kts | 251° |
| 2026-04-27 20:20 | 53.80465 | 10.64714 | 1291 ft | 78 kts | 250° |
| 2026-04-27 20:20 | 53.80268 | 10.63861 | 1272 ft | 77 kts | 249° |
| 2026-04-27 20:21 | 53.80065 | 10.63004 | 1227 ft | 79 kts | 252° |
| 2026-04-27 20:21 | 53.80137 | 10.62230 | 1250 ft | 60 kts | 331° |
| 2026-04-27 20:21 | 53.80403 | 10.62344 | 1217 ft | 48 kts | 84° |
| 2026-04-27 20:21 | 53.80261 | 10.62688 | 1186 ft | 60 kts | 128° |
| 2026-04-27 20:22 | 53.79966 | 10.63085 | 1169 ft | 49 kts | 126° |
| 2026-04-27 20:22 | 53.79718 | 10.63468 | 1072 ft | 46 kts | 123° |
| 2026-04-27 20:22 | 53.79516 | 10.63873 | 992 ft | 45 kts | 114° |
| 2026-04-27 20:22 | 53.79462 | 10.64005 | 973 ft | 45 kts | 111° |